sensor_id;sensor_type;location;lat;lon;timestamp;P1;durP1;ratioP1;P2;durP2;ratioP2
19189;SDS011;9727;50.200;19.038;2023-10-19T00:02:08;37.03;;;21.23;;
19189;SDS011;9727;50.200;19.038;2023-10-19T00:04:39;36.43;;;21.23;;
19189;SDS011;9727;50.200;19.038;2023-10-19T00:07:07;37.57;;;21.97;;
19189;SDS011;9727;50.200;19.038;2023-10-19T00:09:43;40.93;;;22.27;;
19189;SDS011;9727;50.200;19.038;2023-10-19T00:12:14;40.50;;;22.47;;
19189;SDS011;9727;50.200;19.038;2023-10-19T00:14:41;35.90;;;21.57;;
19189;SDS011;9727;50.200;19.038;2023-10-19T00:17:08;40.53;;;22.53;;
19189;SDS011;9727;50.200;19.038;2023-10-19T00:19:36;34.73;;;21.93;;
19189;SDS011;9727;50.200;19.038;2023-10-19T00:22:23;36.13;;;21.90;;
19189;SDS011;9727;50.200;19.038;2023-10-19T00:24:49;36.70;;;22.13;;
19189;SDS011;9727;50.200;19.038;2023-10-19T00:27:16;43.27;;;23.70;;
19189;SDS011;9727;50.200;19.038;2023-10-19T00:29:43;36.93;;;22.10;;
19189;SDS011;9727;50.200;19.038;2023-10-19T00:32:14;37.33;;;21.43;;
19189;SDS011;9727;50.200;19.038;2023-10-19T00:34:43;35.87;;;21.77;;
19189;SDS011;9727;50.200;19.038;2023-10-19T00:37:16;38.50;;;23.17;;
19189;SDS011;9727;50.200;19.038;2023-10-19T00:39:46;42.60;;;23.60;;
19189;SDS011;9727;50.200;19.038;2023-10-19T00:42:19;43.23;;;23.43;;
19189;SDS011;9727;50.200;19.038;2023-10-19T00:44:50;40.77;;;23.67;;
19189;SDS011;9727;50.200;19.038;2023-10-19T00:47:24;38.37;;;24.10;;
19189;SDS011;9727;50.200;19.038;2023-10-19T00:49:55;43.00;;;26.43;;
19189;SDS011;9727;50.200;19.038;2023-10-19T00:52:30;48.80;;;26.07;;
19189;SDS011;9727;50.200;19.038;2023-10-19T00:55:06;42.43;;;25.37;;
19189;SDS011;9727;50.200;19.038;2023-10-19T00:57:37;45.43;;;26.40;;
19189;SDS011;9727;50.200;19.038;2023-10-19T01:00:07;46.13;;;26.30;;
19189;SDS011;9727;50.200;19.038;2023-10-19T01:02:46;44.53;;;25.23;;
19189;SDS011;9727;50.200;19.038;2023-10-19T01:05:13;41.67;;;25.20;;
19189;SDS011;9727;50.200;19.038;2023-10-19T01:07:40;43.37;;;25.60;;
19189;SDS011;9727;50.200;19.038;2023-10-19T01:10:08;40.27;;;22.67;;
19189;SDS011;9727;50.200;19.038;2023-10-19T01:12:37;35.00;;;21.67;;
19189;SDS011;9727;50.200;19.038;2023-10-19T01:15:08;39.87;;;23.83;;
19189;SDS011;9727;50.200;19.038;2023-10-19T01:17:50;40.90;;;24.30;;
19189;SDS011;9727;50.200;19.038;2023-10-19T01:20:21;41.77;;;23.73;;
19189;SDS011;9727;50.200;19.038;2023-10-19T01:22:50;41.43;;;23.70;;
19189;SDS011;9727;50.200;19.038;2023-10-19T01:25:21;39.73;;;24.07;;
19189;SDS011;9727;50.200;19.038;2023-10-19T01:28:01;37.03;;;22.33;;
19189;SDS011;9727;50.200;19.038;2023-10-19T01:30:32;40.77;;;23.70;;
19189;SDS011;9727;50.200;19.038;2023-10-19T01:33:09;39.33;;;23.47;;
19189;SDS011;9727;50.200;19.038;2023-10-19T01:35:40;43.00;;;25.27;;
19189;SDS011;9727;50.200;19.038;2023-10-19T01:38:26;46.40;;;25.60;;
19189;SDS011;9727;50.200;19.038;2023-10-19T01:40:56;44.23;;;25.87;;
19189;SDS011;9727;50.200;19.038;2023-10-19T01:43:24;45.33;;;28.67;;
19189;SDS011;9727;50.200;19.038;2023-10-19T01:45:54;59.73;;;37.03;;
19189;SDS011;9727;50.200;19.038;2023-10-19T01:48:20;54.23;;;35.00;;
19189;SDS011;9727;50.200;19.038;2023-10-19T01:50:53;55.87;;;35.50;;
19189;SDS011;9727;50.200;19.038;2023-10-19T01:53:21;52.33;;;32.57;;
19189;SDS011;9727;50.200;19.038;2023-10-19T01:55:51;56.23;;;32.50;;
19189;SDS011;9727;50.200;19.038;2023-10-19T01:58:24;56.53;;;31.57;;
19189;SDS011;9727;50.200;19.038;2023-10-19T02:00:51;51.80;;;30.80;;
19189;SDS011;9727;50.200;19.038;2023-10-19T02:03:21;52.23;;;30.50;;
19189;SDS011;9727;50.200;19.038;2023-10-19T02:05:56;46.27;;;28.57;;
19189;SDS011;9727;50.200;19.038;2023-10-19T02:08:24;50.27;;;26.23;;
19189;SDS011;9727;50.200;19.038;2023-10-19T02:10:53;47.00;;;26.87;;
19189;SDS011;9727;50.200;19.038;2023-10-19T02:13:21;43.50;;;26.23;;
19189;SDS011;9727;50.200;19.038;2023-10-19T02:15:48;43.67;;;26.37;;
19189;SDS011;9727;50.200;19.038;2023-10-19T02:18:14;46.17;;;26.27;;
19189;SDS011;9727;50.200;19.038;2023-10-19T02:20:42;53.07;;;28.20;;
19189;SDS011;9727;50.200;19.038;2023-10-19T02:23:13;45.63;;;27.93;;
19189;SDS011;9727;50.200;19.038;2023-10-19T02:25:39;49.93;;;29.73;;
19189;SDS011;9727;50.200;19.038;2023-10-19T02:28:09;50.70;;;28.73;;
19189;SDS011;9727;50.200;19.038;2023-10-19T02:30:37;50.20;;;28.97;;
19189;SDS011;9727;50.200;19.038;2023-10-19T02:33:05;51.47;;;28.67;;
19189;SDS011;9727;50.200;19.038;2023-10-19T02:35:31;46.60;;;28.27;;
19189;SDS011;9727;50.200;19.038;2023-10-19T02:38:03;47.70;;;27.67;;
19189;SDS011;9727;50.200;19.038;2023-10-19T02:40:29;42.83;;;25.47;;
19189;SDS011;9727;50.200;19.038;2023-10-19T02:43:03;42.77;;;26.13;;
19189;SDS011;9727;50.200;19.038;2023-10-19T02:45:34;45.77;;;25.93;;
19189;SDS011;9727;50.200;19.038;2023-10-19T02:48:03;48.00;;;25.23;;
19189;SDS011;9727;50.200;19.038;2023-10-19T02:50:29;42.03;;;24.30;;
19189;SDS011;9727;50.200;19.038;2023-10-19T02:52:57;44.80;;;25.20;;
19189;SDS011;9727;50.200;19.038;2023-10-19T02:55:23;40.93;;;23.67;;
19189;SDS011;9727;50.200;19.038;2023-10-19T02:57:50;39.47;;;23.07;;
19189;SDS011;9727;50.200;19.038;2023-10-19T03:00:15;40.70;;;22.90;;
19189;SDS011;9727;50.200;19.038;2023-10-19T03:02:46;38.37;;;22.00;;
19189;SDS011;9727;50.200;19.038;2023-10-19T03:05:12;38.80;;;22.97;;
19189;SDS011;9727;50.200;19.038;2023-10-19T03:07:40;44.23;;;23.97;;
19189;SDS011;9727;50.200;19.038;2023-10-19T03:10:08;39.80;;;22.47;;
19189;SDS011;9727;50.200;19.038;2023-10-19T03:12:48;42.07;;;23.57;;
19189;SDS011;9727;50.200;19.038;2023-10-19T03:15:14;41.20;;;25.03;;
19189;SDS011;9727;50.200;19.038;2023-10-19T03:17:42;43.23;;;25.53;;
19189;SDS011;9727;50.200;19.038;2023-10-19T03:20:10;40.90;;;26.23;;
19189;SDS011;9727;50.200;19.038;2023-10-19T03:22:37;42.57;;;26.23;;
19189;SDS011;9727;50.200;19.038;2023-10-19T03:25:03;44.63;;;26.80;;
19189;SDS011;9727;50.200;19.038;2023-10-19T03:27:57;42.90;;;24.93;;
19189;SDS011;9727;50.200;19.038;2023-10-19T03:30:31;40.53;;;25.40;;
19189;SDS011;9727;50.200;19.038;2023-10-19T03:33:05;37.50;;;22.37;;
19189;SDS011;9727;50.200;19.038;2023-10-19T03:35:37;38.50;;;22.37;;
19189;SDS011;9727;50.200;19.038;2023-10-19T03:38:06;38.20;;;23.80;;
19189;SDS011;9727;50.200;19.038;2023-10-19T03:40:40;40.83;;;21.93;;
19189;SDS011;9727;50.200;19.038;2023-10-19T03:43:11;45.00;;;23.83;;
19189;SDS011;9727;50.200;19.038;2023-10-19T03:45:43;42.40;;;24.03;;
19189;SDS011;9727;50.200;19.038;2023-10-19T03:48:17;44.50;;;23.73;;
19189;SDS011;9727;50.200;19.038;2023-10-19T03:50:51;42.90;;;22.77;;
19189;SDS011;9727;50.200;19.038;2023-10-19T03:53:19;42.13;;;22.33;;
19189;SDS011;9727;50.200;19.038;2023-10-19T03:55:46;38.10;;;21.93;;
19189;SDS011;9727;50.200;19.038;2023-10-19T03:58:17;41.33;;;22.87;;
19189;SDS011;9727;50.200;19.038;2023-10-19T04:00:48;41.10;;;22.67;;
19189;SDS011;9727;50.200;19.038;2023-10-19T04:03:15;37.20;;;21.90;;
19189;SDS011;9727;50.200;19.038;2023-10-19T04:05:42;35.83;;;20.77;;
19189;SDS011;9727;50.200;19.038;2023-10-19T04:08:13;33.73;;;19.70;;
19189;SDS011;9727;50.200;19.038;2023-10-19T04:10:45;33.13;;;19.00;;
19189;SDS011;9727;50.200;19.038;2023-10-19T04:13:32;29.30;;;17.43;;
19189;SDS011;9727;50.200;19.038;2023-10-19T04:16:05;37.37;;;19.37;;
19189;SDS011;9727;50.200;19.038;2023-10-19T04:18:37;33.27;;;19.73;;
19189;SDS011;9727;50.200;19.038;2023-10-19T04:21:09;33.07;;;20.53;;
19189;SDS011;9727;50.200;19.038;2023-10-19T04:23:40;32.03;;;19.63;;
19189;SDS011;9727;50.200;19.038;2023-10-19T04:26:06;33.23;;;19.20;;
19189;SDS011;9727;50.200;19.038;2023-10-19T04:28:37;33.50;;;20.27;;
19189;SDS011;9727;50.200;19.038;2023-10-19T04:31:14;32.10;;;19.30;;
19189;SDS011;9727;50.200;19.038;2023-10-19T04:33:41;34.10;;;18.67;;
19189;SDS011;9727;50.200;19.038;2023-10-19T04:36:17;29.13;;;18.47;;
19189;SDS011;9727;50.200;19.038;2023-10-19T04:38:48;32.63;;;18.80;;
19189;SDS011;9727;50.200;19.038;2023-10-19T04:41:17;30.33;;;18.13;;
19189;SDS011;9727;50.200;19.038;2023-10-19T04:43:45;32.87;;;20.67;;
19189;SDS011;9727;50.200;19.038;2023-10-19T04:46:24;31.10;;;19.13;;
19189;SDS011;9727;50.200;19.038;2023-10-19T04:48:51;35.27;;;20.50;;
19189;SDS011;9727;50.200;19.038;2023-10-19T04:51:17;31.83;;;20.87;;
19189;SDS011;9727;50.200;19.038;2023-10-19T04:53:53;34.47;;;19.57;;
19189;SDS011;9727;50.200;19.038;2023-10-19T04:56:20;37.90;;;20.87;;
19189;SDS011;9727;50.200;19.038;2023-10-19T04:58:47;36.93;;;21.13;;
19189;SDS011;9727;50.200;19.038;2023-10-19T05:01:14;34.50;;;20.20;;
19189;SDS011;9727;50.200;19.038;2023-10-19T05:03:41;34.33;;;21.50;;
19189;SDS011;9727;50.200;19.038;2023-10-19T05:06:08;38.80;;;22.63;;
19189;SDS011;9727;50.200;19.038;2023-10-19T05:08:37;36.60;;;22.43;;
19189;SDS011;9727;50.200;19.038;2023-10-19T05:11:06;39.23;;;22.77;;
19189;SDS011;9727;50.200;19.038;2023-10-19T05:13:38;35.40;;;21.73;;
19189;SDS011;9727;50.200;19.038;2023-10-19T05:16:12;34.93;;;21.07;;
19189;SDS011;9727;50.200;19.038;2023-10-19T05:18:39;34.53;;;20.63;;
19189;SDS011;9727;50.200;19.038;2023-10-19T05:21:06;37.53;;;22.47;;
19189;SDS011;9727;50.200;19.038;2023-10-19T05:23:36;48.60;;;26.57;;
19189;SDS011;9727;50.200;19.038;2023-10-19T05:26:04;43.73;;;25.93;;
19189;SDS011;9727;50.200;19.038;2023-10-19T05:28:33;40.43;;;25.23;;
19189;SDS011;9727;50.200;19.038;2023-10-19T05:31:02;43.23;;;26.23;;
19189;SDS011;9727;50.200;19.038;2023-10-19T05:33:32;39.90;;;25.33;;
19189;SDS011;9727;50.200;19.038;2023-10-19T05:36:02;40.70;;;25.13;;
19189;SDS011;9727;50.200;19.038;2023-10-19T05:38:32;39.97;;;25.23;;
19189;SDS011;9727;50.200;19.038;2023-10-19T05:41:00;39.77;;;25.17;;
19189;SDS011;9727;50.200;19.038;2023-10-19T05:43:28;36.23;;;23.17;;
19189;SDS011;9727;50.200;19.038;2023-10-19T05:45:57;39.47;;;23.63;;
19189;SDS011;9727;50.200;19.038;2023-10-19T05:48:25;36.37;;;20.73;;
19189;SDS011;9727;50.200;19.038;2023-10-19T05:50:52;34.07;;;19.30;;
19189;SDS011;9727;50.200;19.038;2023-10-19T05:53:19;34.23;;;18.87;;
19189;SDS011;9727;50.200;19.038;2023-10-19T05:55:47;30.33;;;17.13;;
19189;SDS011;9727;50.200;19.038;2023-10-19T05:58:14;30.60;;;17.70;;
19189;SDS011;9727;50.200;19.038;2023-10-19T06:00:41;28.50;;;17.43;;
19189;SDS011;9727;50.200;19.038;2023-10-19T06:03:10;30.67;;;17.33;;
19189;SDS011;9727;50.200;19.038;2023-10-19T06:05:37;29.20;;;16.90;;
19189;SDS011;9727;50.200;19.038;2023-10-19T06:08:04;28.70;;;16.30;;
19189;SDS011;9727;50.200;19.038;2023-10-19T06:10:30;29.03;;;16.13;;
19189;SDS011;9727;50.200;19.038;2023-10-19T06:12:58;27.03;;;15.60;;
19189;SDS011;9727;50.200;19.038;2023-10-19T06:15:29;29.20;;;15.53;;
19189;SDS011;9727;50.200;19.038;2023-10-19T06:17:57;29.10;;;16.13;;
19189;SDS011;9727;50.200;19.038;2023-10-19T06:20:25;27.60;;;15.67;;
19189;SDS011;9727;50.200;19.038;2023-10-19T06:22:52;26.87;;;15.80;;
19189;SDS011;9727;50.200;19.038;2023-10-19T06:25:35;28.33;;;15.10;;
19189;SDS011;9727;50.200;19.038;2023-10-19T06:28:02;25.57;;;13.97;;
19189;SDS011;9727;50.200;19.038;2023-10-19T06:30:30;30.73;;;15.73;;
19189;SDS011;9727;50.200;19.038;2023-10-19T06:32:58;28.70;;;15.23;;
19189;SDS011;9727;50.200;19.038;2023-10-19T06:35:27;28.30;;;14.90;;
19189;SDS011;9727;50.200;19.038;2023-10-19T06:37:54;28.00;;;16.30;;
19189;SDS011;9727;50.200;19.038;2023-10-19T06:40:21;27.03;;;15.53;;
19189;SDS011;9727;50.200;19.038;2023-10-19T06:42:48;30.47;;;17.07;;
19189;SDS011;9727;50.200;19.038;2023-10-19T06:45:15;26.50;;;16.63;;
19189;SDS011;9727;50.200;19.038;2023-10-19T06:47:43;31.17;;;16.43;;
19189;SDS011;9727;50.200;19.038;2023-10-19T06:50:10;31.50;;;17.17;;
19189;SDS011;9727;50.200;19.038;2023-10-19T06:52:38;30.33;;;15.93;;
19189;SDS011;9727;50.200;19.038;2023-10-19T06:55:08;28.63;;;16.57;;
19189;SDS011;9727;50.200;19.038;2023-10-19T06:57:41;31.70;;;17.73;;
19189;SDS011;9727;50.200;19.038;2023-10-19T07:00:10;42.13;;;21.37;;
19189;SDS011;9727;50.200;19.038;2023-10-19T07:02:40;34.50;;;19.67;;
19189;SDS011;9727;50.200;19.038;2023-10-19T07:05:08;35.30;;;20.63;;
19189;SDS011;9727;50.200;19.038;2023-10-19T07:07:40;36.50;;;19.20;;
19189;SDS011;9727;50.200;19.038;2023-10-19T07:10:08;34.50;;;19.30;;
19189;SDS011;9727;50.200;19.038;2023-10-19T07:15:23;34.03;;;20.40;;
19189;SDS011;9727;50.200;19.038;2023-10-19T07:17:51;38.43;;;20.60;;
19189;SDS011;9727;50.200;19.038;2023-10-19T07:20:19;37.27;;;20.73;;
19189;SDS011;9727;50.200;19.038;2023-10-19T07:22:53;35.00;;;19.77;;
19189;SDS011;9727;50.200;19.038;2023-10-19T07:25:20;33.37;;;19.27;;
19189;SDS011;9727;50.200;19.038;2023-10-19T07:27:48;33.77;;;19.63;;
19189;SDS011;9727;50.200;19.038;2023-10-19T07:30:15;31.67;;;18.03;;
19189;SDS011;9727;50.200;19.038;2023-10-19T07:32:46;41.97;;;19.47;;
19189;SDS011;9727;50.200;19.038;2023-10-19T07:35:16;33.37;;;19.33;;
19189;SDS011;9727;50.200;19.038;2023-10-19T07:37:46;36.87;;;20.00;;
19189;SDS011;9727;50.200;19.038;2023-10-19T07:40:17;37.30;;;20.07;;
19189;SDS011;9727;50.200;19.038;2023-10-19T07:42:51;40.23;;;21.60;;
19189;SDS011;9727;50.200;19.038;2023-10-19T07:45:25;35.27;;;19.30;;
19189;SDS011;9727;50.200;19.038;2023-10-19T07:47:52;37.40;;;19.33;;
19189;SDS011;9727;50.200;19.038;2023-10-19T07:50:20;33.00;;;17.37;;
19189;SDS011;9727;50.200;19.038;2023-10-19T07:52:49;35.13;;;18.20;;
19189;SDS011;9727;50.200;19.038;2023-10-19T07:55:23;34.07;;;18.53;;
19189;SDS011;9727;50.200;19.038;2023-10-19T07:57:53;33.83;;;17.47;;
19189;SDS011;9727;50.200;19.038;2023-10-19T08:00:34;30.00;;;16.50;;
19189;SDS011;9727;50.200;19.038;2023-10-19T08:03:01;30.10;;;15.63;;
19189;SDS011;9727;50.200;19.038;2023-10-19T08:05:29;26.93;;;15.13;;
19189;SDS011;9727;50.200;19.038;2023-10-19T08:07:57;29.50;;;16.20;;
19189;SDS011;9727;50.200;19.038;2023-10-19T08:10:28;30.63;;;16.43;;
19189;SDS011;9727;50.200;19.038;2023-10-19T08:12:54;30.27;;;16.90;;
19189;SDS011;9727;50.200;19.038;2023-10-19T08:15:21;27.83;;;15.60;;
19189;SDS011;9727;50.200;19.038;2023-10-19T08:17:48;28.70;;;15.73;;
19189;SDS011;9727;50.200;19.038;2023-10-19T08:20:16;30.83;;;17.57;;
19189;SDS011;9727;50.200;19.038;2023-10-19T08:22:48;30.47;;;16.73;;
19189;SDS011;9727;50.200;19.038;2023-10-19T08:25:15;31.63;;;17.33;;
19189;SDS011;9727;50.200;19.038;2023-10-19T08:27:47;32.90;;;18.10;;
19189;SDS011;9727;50.200;19.038;2023-10-19T08:30:15;36.30;;;18.33;;
19189;SDS011;9727;50.200;19.038;2023-10-19T08:32:43;38.07;;;21.57;;
19189;SDS011;9727;50.200;19.038;2023-10-19T08:35:13;38.27;;;20.03;;
19189;SDS011;9727;50.200;19.038;2023-10-19T08:37:43;33.47;;;18.43;;
19189;SDS011;9727;50.200;19.038;2023-10-19T08:40:13;29.33;;;17.00;;
19189;SDS011;9727;50.200;19.038;2023-10-19T08:42:40;24.20;;;16.00;;
19189;SDS011;9727;50.200;19.038;2023-10-19T08:45:10;27.30;;;16.03;;
19189;SDS011;9727;50.200;19.038;2023-10-19T08:47:41;26.77;;;15.17;;
19189;SDS011;9727;50.200;19.038;2023-10-19T08:50:13;24.73;;;14.97;;
19189;SDS011;9727;50.200;19.038;2023-10-19T08:52:40;23.27;;;14.90;;
19189;SDS011;9727;50.200;19.038;2023-10-19T08:55:08;24.97;;;15.53;;
19189;SDS011;9727;50.200;19.038;2023-10-19T08:57:39;23.43;;;14.70;;
19189;SDS011;9727;50.200;19.038;2023-10-19T09:00:06;21.43;;;12.97;;
19189;SDS011;9727;50.200;19.038;2023-10-19T09:02:36;21.93;;;13.77;;
19189;SDS011;9727;50.200;19.038;2023-10-19T09:05:07;24.20;;;14.30;;
19189;SDS011;9727;50.200;19.038;2023-10-19T09:07:39;24.33;;;14.00;;
19189;SDS011;9727;50.200;19.038;2023-10-19T09:10:09;25.53;;;15.13;;
19189;SDS011;9727;50.200;19.038;2023-10-19T09:12:43;30.07;;;15.60;;
19189;SDS011;9727;50.200;19.038;2023-10-19T09:15:20;30.10;;;14.47;;
19189;SDS011;9727;50.200;19.038;2023-10-19T09:17:50;25.03;;;14.63;;
19189;SDS011;9727;50.200;19.038;2023-10-19T09:20:23;21.93;;;14.17;;
19189;SDS011;9727;50.200;19.038;2023-10-19T09:22:53;26.33;;;15.47;;
19189;SDS011;9727;50.200;19.038;2023-10-19T09:25:21;20.10;;;13.60;;
19189;SDS011;9727;50.200;19.038;2023-10-19T09:27:48;26.30;;;15.30;;
19189;SDS011;9727;50.200;19.038;2023-10-19T09:30:17;29.47;;;17.73;;
19189;SDS011;9727;50.200;19.038;2023-10-19T09:32:53;36.10;;;19.20;;
19189;SDS011;9727;50.200;19.038;2023-10-19T09:35:21;29.03;;;17.30;;
19189;SDS011;9727;50.200;19.038;2023-10-19T09:37:59;33.30;;;20.13;;
19189;SDS011;9727;50.200;19.038;2023-10-19T09:40:26;33.37;;;18.20;;
19189;SDS011;9727;50.200;19.038;2023-10-19T09:42:55;30.60;;;17.50;;
19189;SDS011;9727;50.200;19.038;2023-10-19T09:45:22;28.50;;;16.40;;
19189;SDS011;9727;50.200;19.038;2023-10-19T09:48:01;25.77;;;14.60;;
19189;SDS011;9727;50.200;19.038;2023-10-19T09:50:32;25.47;;;14.80;;
19189;SDS011;9727;50.200;19.038;2023-10-19T09:52:58;26.20;;;15.57;;
19189;SDS011;9727;50.200;19.038;2023-10-19T09:55:27;28.73;;;17.17;;
19189;SDS011;9727;50.200;19.038;2023-10-19T09:57:56;31.70;;;17.17;;
19189;SDS011;9727;50.200;19.038;2023-10-19T10:00:25;31.27;;;16.13;;
19189;SDS011;9727;50.200;19.038;2023-10-19T10:03:07;27.50;;;13.83;;
19189;SDS011;9727;50.200;19.038;2023-10-19T10:05:54;27.27;;;15.60;;
19189;SDS011;9727;50.200;19.038;2023-10-19T10:08:30;27.23;;;16.17;;
19189;SDS011;9727;50.200;19.038;2023-10-19T10:10:58;27.37;;;16.40;;
19189;SDS011;9727;50.200;19.038;2023-10-19T10:13:37;31.50;;;16.43;;
19189;SDS011;9727;50.200;19.038;2023-10-19T10:16:06;26.83;;;16.33;;
19189;SDS011;9727;50.200;19.038;2023-10-19T10:18:40;28.87;;;17.57;;
19189;SDS011;9727;50.200;19.038;2023-10-19T10:21:07;24.77;;;15.73;;
19189;SDS011;9727;50.200;19.038;2023-10-19T10:23:43;27.60;;;15.43;;
19189;SDS011;9727;50.200;19.038;2023-10-19T10:26:10;24.73;;;14.50;;
19189;SDS011;9727;50.200;19.038;2023-10-19T10:28:45;47.87;;;21.53;;
19189;SDS011;9727;50.200;19.038;2023-10-19T10:31:18;48.60;;;22.30;;
19189;SDS011;9727;50.200;19.038;2023-10-19T10:33:56;44.83;;;21.30;;
19189;SDS011;9727;50.200;19.038;2023-10-19T10:36:25;34.97;;;18.43;;
19189;SDS011;9727;50.200;19.038;2023-10-19T10:39:00;41.03;;;19.23;;
19189;SDS011;9727;50.200;19.038;2023-10-19T10:41:33;40.53;;;19.07;;
19189;SDS011;9727;50.200;19.038;2023-10-19T10:44:02;30.00;;;16.47;;
19189;SDS011;9727;50.200;19.038;2023-10-19T10:46:36;32.73;;;18.13;;
19189;SDS011;9727;50.200;19.038;2023-10-19T10:49:09;34.70;;;17.97;;
19189;SDS011;9727;50.200;19.038;2023-10-19T10:51:36;28.67;;;16.17;;
19189;SDS011;9727;50.200;19.038;2023-10-19T10:54:06;33.17;;;17.63;;
19189;SDS011;9727;50.200;19.038;2023-10-19T10:56:39;33.47;;;17.87;;
19189;SDS011;9727;50.200;19.038;2023-10-19T10:59:12;30.10;;;17.90;;
19189;SDS011;9727;50.200;19.038;2023-10-19T11:01:39;27.27;;;17.53;;
19189;SDS011;9727;50.200;19.038;2023-10-19T11:04:12;31.90;;;18.33;;
19189;SDS011;9727;50.200;19.038;2023-10-19T11:06:49;32.77;;;18.57;;
19189;SDS011;9727;50.200;19.038;2023-10-19T11:09:16;30.27;;;19.13;;
19189;SDS011;9727;50.200;19.038;2023-10-19T11:11:47;32.60;;;19.43;;
19189;SDS011;9727;50.200;19.038;2023-10-19T11:14:14;33.37;;;20.97;;
19189;SDS011;9727;50.200;19.038;2023-10-19T11:16:41;30.33;;;20.00;;
19189;SDS011;9727;50.200;19.038;2023-10-19T11:19:08;28.87;;;18.60;;
19189;SDS011;9727;50.200;19.038;2023-10-19T11:21:37;27.80;;;18.80;;
19189;SDS011;9727;50.200;19.038;2023-10-19T11:24:06;30.47;;;18.30;;
19189;SDS011;9727;50.200;19.038;2023-10-19T11:26:37;28.70;;;18.37;;
19189;SDS011;9727;50.200;19.038;2023-10-19T11:29:16;30.57;;;18.00;;
19189;SDS011;9727;50.200;19.038;2023-10-19T11:31:56;30.57;;;18.33;;
19189;SDS011;9727;50.200;19.038;2023-10-19T11:34:23;29.80;;;18.50;;
19189;SDS011;9727;50.200;19.038;2023-10-19T11:36:58;31.00;;;19.93;;
19189;SDS011;9727;50.200;19.038;2023-10-19T11:39:25;31.20;;;20.00;;
19189;SDS011;9727;50.200;19.038;2023-10-19T11:41:56;30.73;;;20.57;;
19189;SDS011;9727;50.200;19.038;2023-10-19T11:44:26;34.00;;;22.27;;
19189;SDS011;9727;50.200;19.038;2023-10-19T11:46:54;38.07;;;22.70;;
19189;SDS011;9727;50.200;19.038;2023-10-19T11:49:20;35.70;;;23.57;;
19189;SDS011;9727;50.200;19.038;2023-10-19T11:51:51;37.73;;;24.40;;
19189;SDS011;9727;50.200;19.038;2023-10-19T11:54:22;38.53;;;25.63;;
19189;SDS011;9727;50.200;19.038;2023-10-19T11:56:49;36.63;;;25.33;;
19189;SDS011;9727;50.200;19.038;2023-10-19T11:59:23;34.03;;;22.50;;
19189;SDS011;9727;50.200;19.038;2023-10-19T12:01:54;32.00;;;21.67;;
19189;SDS011;9727;50.200;19.038;2023-10-19T12:04:22;31.23;;;21.07;;
19189;SDS011;9727;50.200;19.038;2023-10-19T12:06:48;27.90;;;20.60;;
19189;SDS011;9727;50.200;19.038;2023-10-19T12:09:15;34.30;;;21.47;;
19189;SDS011;9727;50.200;19.038;2023-10-19T12:11:43;32.67;;;22.03;;
19189;SDS011;9727;50.200;19.038;2023-10-19T12:14:10;32.47;;;21.37;;
19189;SDS011;9727;50.200;19.038;2023-10-19T12:16:40;28.53;;;19.57;;
19189;SDS011;9727;50.200;19.038;2023-10-19T12:19:08;33.20;;;19.27;;
19189;SDS011;9727;50.200;19.038;2023-10-19T12:21:37;38.43;;;21.97;;
19189;SDS011;9727;50.200;19.038;2023-10-19T12:24:06;32.33;;;19.80;;
19189;SDS011;9727;50.200;19.038;2023-10-19T12:26:37;27.17;;;18.90;;
19189;SDS011;9727;50.200;19.038;2023-10-19T12:29:07;35.00;;;19.67;;
19189;SDS011;9727;50.200;19.038;2023-10-19T12:31:36;38.67;;;20.77;;
19189;SDS011;9727;50.200;19.038;2023-10-19T12:34:13;28.00;;;17.87;;
19189;SDS011;9727;50.200;19.038;2023-10-19T12:36:41;25.47;;;17.17;;
19189;SDS011;9727;50.200;19.038;2023-10-19T12:39:11;27.43;;;17.07;;
19189;SDS011;9727;50.200;19.038;2023-10-19T12:42:00;25.13;;;17.33;;
19189;SDS011;9727;50.200;19.038;2023-10-19T12:44:33;27.73;;;18.33;;
19189;SDS011;9727;50.200;19.038;2023-10-19T12:47:06;33.23;;;21.57;;
19189;SDS011;9727;50.200;19.038;2023-10-19T12:49:38;31.07;;;21.43;;
19189;SDS011;9727;50.200;19.038;2023-10-19T12:52:04;31.73;;;21.73;;
19189;SDS011;9727;50.200;19.038;2023-10-19T12:54:34;30.77;;;20.73;;
19189;SDS011;9727;50.200;19.038;2023-10-19T12:57:02;26.97;;;18.37;;
19189;SDS011;9727;50.200;19.038;2023-10-19T12:59:33;30.07;;;18.37;;
19189;SDS011;9727;50.200;19.038;2023-10-19T13:02:02;27.73;;;18.10;;
19189;SDS011;9727;50.200;19.038;2023-10-19T13:04:29;27.77;;;17.20;;
19189;SDS011;9727;50.200;19.038;2023-10-19T13:06:59;31.53;;;18.50;;
19189;SDS011;9727;50.200;19.038;2023-10-19T13:09:28;27.40;;;17.73;;
19189;SDS011;9727;50.200;19.038;2023-10-19T13:11:58;31.33;;;19.40;;
19189;SDS011;9727;50.200;19.038;2023-10-19T13:14:26;29.60;;;18.50;;
19189;SDS011;9727;50.200;19.038;2023-10-19T13:16:54;30.20;;;18.83;;
19189;SDS011;9727;50.200;19.038;2023-10-19T13:19:20;25.30;;;17.47;;
19189;SDS011;9727;50.200;19.038;2023-10-19T13:21:49;25.20;;;17.27;;
19189;SDS011;9727;50.200;19.038;2023-10-19T13:24:17;28.70;;;17.80;;
19189;SDS011;9727;50.200;19.038;2023-10-19T13:26:46;24.37;;;17.17;;
19189;SDS011;9727;50.200;19.038;2023-10-19T13:29:13;25.47;;;17.13;;
19189;SDS011;9727;50.200;19.038;2023-10-19T13:31:40;29.07;;;18.67;;
19189;SDS011;9727;50.200;19.038;2023-10-19T13:34:15;25.43;;;17.70;;
19189;SDS011;9727;50.200;19.038;2023-10-19T13:36:42;28.37;;;18.13;;
19189;SDS011;9727;50.200;19.038;2023-10-19T13:39:10;25.73;;;18.60;;
19189;SDS011;9727;50.200;19.038;2023-10-19T13:41:50;51.53;;;28.17;;
19189;SDS011;9727;50.200;19.038;2023-10-19T13:44:17;43.33;;;27.93;;
19189;SDS011;9727;50.200;19.038;2023-10-19T13:46:47;38.13;;;25.97;;
19189;SDS011;9727;50.200;19.038;2023-10-19T13:49:17;39.97;;;28.87;;
19189;SDS011;9727;50.200;19.038;2023-10-19T13:51:48;39.83;;;27.43;;
19189;SDS011;9727;50.200;19.038;2023-10-19T13:54:15;45.73;;;30.23;;
19189;SDS011;9727;50.200;19.038;2023-10-19T13:56:41;50.37;;;33.70;;
19189;SDS011;9727;50.200;19.038;2023-10-19T13:59:08;56.60;;;36.77;;
19189;SDS011;9727;50.200;19.038;2023-10-19T14:01:36;49.63;;;35.10;;
19189;SDS011;9727;50.200;19.038;2023-10-19T14:04:04;49.90;;;34.27;;
19189;SDS011;9727;50.200;19.038;2023-10-19T14:06:35;53.20;;;36.77;;
19189;SDS011;9727;50.200;19.038;2023-10-19T14:09:02;50.73;;;32.33;;
19189;SDS011;9727;50.200;19.038;2023-10-19T14:11:30;42.20;;;28.30;;
19189;SDS011;9727;50.200;19.038;2023-10-19T14:13:57;47.07;;;30.53;;
19189;SDS011;9727;50.200;19.038;2023-10-19T14:16:25;53.00;;;29.97;;
19189;SDS011;9727;50.200;19.038;2023-10-19T14:18:53;55.50;;;33.40;;
19189;SDS011;9727;50.200;19.038;2023-10-19T14:21:21;49.40;;;31.87;;
19189;SDS011;9727;50.200;19.038;2023-10-19T14:23:53;48.50;;;32.87;;
19189;SDS011;9727;50.200;19.038;2023-10-19T14:26:19;44.30;;;28.03;;
19189;SDS011;9727;50.200;19.038;2023-10-19T14:28:46;39.67;;;25.93;;
19189;SDS011;9727;50.200;19.038;2023-10-19T14:31:16;44.17;;;29.30;;
19189;SDS011;9727;50.200;19.038;2023-10-19T14:33:43;74.33;;;43.47;;
19189;SDS011;9727;50.200;19.038;2023-10-19T14:36:10;56.33;;;35.03;;
19189;SDS011;9727;50.200;19.038;2023-10-19T14:38:37;59.03;;;37.43;;
19189;SDS011;9727;50.200;19.038;2023-10-19T14:41:06;50.33;;;34.40;;